Airfield :
LOGIN :

Register | Disclaimer

   EN    FR    IT 

 










Legend :    VFR   Marginal VFR   IFR   Intensive IFR   Very Intensive IFR
Visi :
Ceiling :
>= 8 km
>= 3000ft
5 to 8 km
1000 to 3000 ft
1500m to 5 km
500 to 1000 ft
800 to 1500m
200 to 500 ft
< 800m
< 200 ft
Symbols :   Thunderstorms  Fog  Heavy snow  Heavy precipitations  Wind > 20 kt
SIGMETs :     Misc.  Thunderstorms  Icing  Turbulence  Mountain Waves  Volcanic Ashes






- Airport Elevation : 309 ft
- IATA code : FNI


LFTW - Nîmes Garons

CURRENT METAR :
  • 291130Z AUTO 36009KT 310V020 CAVOK 20/08 Q1002 NOSIG

EXPIRED METARs :
  • 291100Z AUTO 31009KT 280V360 CAVOK 20/08 Q1002 NOSIG
  • 291030Z AUTO 34006KT 290V030 CAVOK 20/09 Q1002 NOSIG
  • 291000Z AUTO 35010KT CAVOK 19/08 Q1002 NOSIG
  • 290930Z AUTO 32008KT 290V010 CAVOK 19/08 Q1002 NOSIG
  • 290900Z AUTO 34008KT 300V010 CAVOK 18/08 Q1002 NOSIG
  • 290830Z AUTO 31008KT 290V350 CAVOK 17/08 Q1002 NOSIG

TAF TAF LFTW
Valid from the 29 at 09:00 until the 30 at 09:00 UTC


290800Z 2909/3009 30010KT CAVOK
TEMPO 2912/2916 VRB04KT
BECMG 2918/2920 36010KT
PROB30
TEMPO 2918/2924 SHRA SCT060TCU



MET'MAP, your aeronautical weather chart ! - Copyright ORBIFLY December 2007 - Disclaimer

ORBIFLY MET'MAP TEAM :

Programming & Development : Alexandra Zaïnal
Original concept : Baudouin d'Aumeries
Technical & hardware support : Manuel Goepfert
Assistance : Marc-Olivier Méhu




SOURCES & CREDITS :

   NOAA